createdAt,value
2023-05-14T00:01:25.154Z,87.76
2023-05-14T00:03:52.801Z,87.78
2023-05-14T00:06:20.671Z,87.86
2023-05-14T00:08:48.253Z,87.88
2023-05-14T00:11:15.978Z,88.18
2023-05-14T00:13:43.710Z,88.11
2023-05-14T00:16:12.989Z,88.11
2023-05-14T00:18:40.782Z,88.13
2023-05-14T00:21:08.457Z,88.33
2023-05-14T00:23:36.185Z,88.37
2023-05-14T00:26:03.802Z,88.49
2023-05-14T00:28:31.664Z,88.48
2023-05-14T00:30:59.348Z,88.36
2023-05-14T00:33:28.451Z,88.39
2023-05-14T00:35:56.093Z,88.42
2023-05-14T00:38:24.424Z,88.52
2023-05-14T00:40:52.240Z,88.86
2023-05-14T00:43:20.929Z,88.72
2023-05-14T00:45:50.995Z,88.96
2023-05-14T00:48:20.275Z,89.08
2023-05-14T00:50:50.924Z,89.16
2023-05-14T00:53:20.057Z,88.86
2023-05-14T00:55:50.517Z,88.94
2023-05-14T00:58:19.096Z,88.52
2023-05-14T01:00:47.218Z,88.43
2023-05-14T01:03:14.967Z,88.57
2023-05-14T01:05:50.973Z,88.27
2023-05-14T01:08:39.260Z,88.48
2023-05-14T01:11:12.466Z,88.43
2023-05-14T01:13:48.221Z,88.66
2023-05-14T01:16:19.897Z,88.69
2023-05-14T01:18:49.655Z,88.65
2023-05-14T01:21:26.738Z,88.52
2023-05-14T01:23:54.350Z,88.61
2023-05-14T01:26:22.167Z,88.72
2023-05-14T01:28:52.673Z,88.80
2023-05-14T01:31:28.106Z,89.00
2023-05-14T01:33:58.614Z,88.76
2023-05-14T01:36:29.577Z,88.76
2023-05-14T01:38:57.925Z,88.69
2023-05-14T01:41:26.867Z,88.89
2023-05-14T01:43:54.971Z,88.86
2023-05-14T01:46:24.714Z,88.85
2023-05-14T01:48:52.456Z,88.94
2023-05-14T01:51:20.063Z,88.70
2023-05-14T01:53:49.196Z,88.85
2023-05-14T01:56:16.802Z,88.73
2023-05-14T01:58:44.561Z,88.59
2023-05-14T02:01:12.234Z,88.43
2023-05-14T02:03:40.019Z,88.39
2023-05-14T02:06:08.090Z,88.44
2023-05-14T02:08:36.073Z,88.14
2023-05-14T02:11:05.114Z,88.15
2023-05-14T02:13:32.910Z,88.26
2023-05-14T02:16:00.543Z,88.37
2023-05-14T02:18:28.368Z,88.15
2023-05-14T02:20:57.420Z,88.34
2023-05-14T02:23:34.145Z,88.34
2023-05-14T02:26:08.461Z,88.17
2023-05-14T02:28:36.078Z,88.06
2023-05-14T02:31:03.764Z,87.69
2023-05-14T02:33:31.480Z,87.96
2023-05-14T02:36:00.160Z,87.62
2023-05-14T02:38:28.586Z,87.49
2023-05-14T02:40:57.630Z,87.45
2023-05-14T02:43:26.788Z,87.19
2023-05-14T02:45:54.557Z,87.25
2023-05-14T02:48:22.353Z,87.32
2023-05-14T02:50:51.088Z,87.28
2023-05-14T02:53:18.841Z,87.44
2023-05-14T02:55:47.083Z,87.10
2023-05-14T02:58:15.019Z,87.22
2023-05-14T03:00:44.246Z,87.30
2023-05-14T03:03:12.501Z,87.39
2023-05-14T03:05:40.801Z,87.34
2023-05-14T03:08:08.496Z,87.38
2023-05-14T03:10:36.371Z,87.60
2023-05-14T03:13:04.188Z,87.49
2023-05-14T03:15:31.807Z,87.65
2023-05-14T03:18:01.032Z,87.60
2023-05-14T03:20:29.037Z,87.63
2023-05-14T03:22:56.853Z,87.66
2023-05-14T03:25:25.528Z,87.63
2023-05-14T03:27:53.331Z,87.60
2023-05-14T03:30:21.071Z,87.55
2023-05-14T03:32:49.646Z,87.43
2023-05-14T03:35:18.837Z,87.53
2023-05-14T03:37:46.784Z,87.62
2023-05-14T03:40:14.404Z,87.73
2023-05-14T03:42:44.286Z,87.61
2023-05-14T03:45:12.118Z,87.58
2023-05-14T03:47:39.986Z,87.61
2023-05-14T03:50:09.097Z,87.46
2023-05-14T03:52:38.219Z,87.57
2023-05-14T03:55:06.560Z,87.41
2023-05-14T03:57:34.223Z,87.57
2023-05-14T04:00:03.515Z,87.31
2023-05-14T04:02:44.502Z,87.53
2023-05-14T04:05:12.557Z,87.22
2023-05-14T04:07:41.504Z,87.19
2023-05-14T04:10:10.562Z,87.24
2023-05-14T04:12:38.261Z,87.15
2023-05-14T04:15:11.180Z,87.42
2023-05-14T04:17:39.004Z,87.01
2023-05-14T04:20:08.188Z,87.05
2023-05-14T04:22:35.835Z,87.13
2023-05-14T04:25:05.219Z,87.04
2023-05-14T04:27:34.338Z,86.99
2023-05-14T04:30:01.994Z,86.90
2023-05-14T04:32:30.217Z,86.73
2023-05-14T04:34:57.840Z,86.81
2023-05-14T04:37:26.033Z,86.75
2023-05-14T04:39:53.749Z,86.56
2023-05-14T04:42:22.837Z,86.66
2023-05-14T04:44:50.554Z,86.53
2023-05-14T04:47:18.154Z,86.26
2023-05-14T04:49:45.759Z,86.31
2023-05-14T04:52:13.988Z,86.18
2023-05-14T04:54:41.647Z,86.06
2023-05-14T04:57:09.444Z,86.02
2023-05-14T04:59:38.410Z,85.88
2023-05-14T05:02:06.148Z,85.78
2023-05-14T05:04:33.754Z,85.73
2023-05-14T05:07:01.547Z,85.59
2023-05-14T05:09:29.154Z,85.48
2023-05-14T05:11:56.990Z,85.29
2023-05-14T05:14:24.581Z,85.11
2023-05-14T05:16:53.711Z,85.17
2023-05-14T05:19:29.173Z,85.16
2023-05-14T05:22:04.151Z,84.84
2023-05-14T05:24:31.815Z,85.09
2023-05-14T05:26:59.831Z,85.02
2023-05-14T05:29:27.838Z,84.81
2023-05-14T05:31:56.938Z,84.65
2023-05-14T05:34:24.777Z,84.92
2023-05-14T05:36:52.585Z,84.65
2023-05-14T05:39:20.614Z,84.69
2023-05-14T05:41:48.274Z,84.73
2023-05-14T05:44:16.013Z,84.77
2023-05-14T05:46:43.678Z,84.46
2023-05-14T05:49:12.743Z,84.28
2023-05-14T05:51:40.340Z,83.80
2023-05-14T05:54:08.154Z,84.01
2023-05-14T05:56:35.808Z,83.68
2023-05-14T05:59:04.042Z,83.40
2023-05-14T06:01:32.046Z,82.91
2023-05-14T06:03:59.653Z,82.79
2023-05-14T06:06:29.741Z,82.89
2023-05-14T06:08:57.358Z,83.04
2023-05-14T06:11:25.730Z,83.33
2023-05-14T06:13:53.466Z,83.03
2023-05-14T06:16:21.370Z,83.00
2023-05-14T06:18:49.311Z,82.58
2023-05-14T06:21:17.023Z,82.31
2023-05-14T06:23:46.061Z,82.75
2023-05-14T06:26:13.953Z,83.33
2023-05-14T06:28:41.545Z,82.95
2023-05-14T06:31:09.520Z,82.62
2023-05-14T06:33:37.377Z,82.38
2023-05-14T06:36:07.101Z,82.21
2023-05-14T06:38:34.822Z,81.78
2023-05-14T06:41:04.053Z,82.25
2023-05-14T06:43:31.663Z,82.38
2023-05-14T06:45:59.281Z,82.47
2023-05-14T06:48:27.884Z,82.12
2023-05-14T06:50:56.013Z,82.19
2023-05-14T06:53:23.644Z,82.18
2023-05-14T06:55:52.238Z,81.93
2023-05-14T06:58:21.257Z,81.66
2023-05-14T07:00:49.231Z,80.81
2023-05-14T07:03:16.908Z,81.09
2023-05-14T07:05:46.672Z,81.29
2023-05-14T07:08:14.776Z,81.42
2023-05-14T07:10:42.465Z,81.24
2023-05-14T07:13:10.184Z,80.92
2023-05-14T07:15:39.134Z,80.74
2023-05-14T07:18:06.948Z,80.78
2023-05-14T07:20:34.648Z,80.75
2023-05-14T07:23:02.392Z,80.55
2023-05-14T07:25:30.003Z,79.81
2023-05-14T07:27:57.721Z,79.33
2023-05-14T07:30:25.626Z,78.93
2023-05-14T07:32:55.117Z,78.68
2023-05-14T07:35:22.804Z,78.60
2023-05-14T07:37:50.665Z,79.19
2023-05-14T07:40:18.407Z,79.41
2023-05-14T07:42:46.052Z,79.43
2023-05-14T07:45:13.660Z,79.09
2023-05-14T07:47:41.718Z,79.19
2023-05-14T07:50:12.596Z,79.10
2023-05-14T07:52:40.249Z,79.61
2023-05-14T07:55:08.674Z,79.37
2023-05-14T07:57:36.421Z,79.41
2023-05-14T08:00:04.895Z,79.29
2023-05-14T08:02:40.148Z,78.67
2023-05-14T08:05:09.038Z,78.46
2023-05-14T08:07:38.020Z,78.81
2023-05-14T08:10:07.845Z,79.14
2023-05-14T08:12:35.547Z,78.68
2023-05-14T08:15:03.552Z,78.04
2023-05-14T08:17:31.178Z,78.32
2023-05-14T08:19:58.830Z,78.84
2023-05-14T08:22:26.432Z,78.68
2023-05-14T08:24:55.619Z,77.83
2023-05-14T08:27:23.354Z,77.25
2023-05-14T08:29:51.556Z,77.77
2023-05-14T08:32:23.210Z,78.15
2023-05-14T08:34:52.260Z,77.57
2023-05-14T08:37:20.183Z,77.13
2023-05-14T08:39:47.930Z,77.66
2023-05-14T08:42:21.558Z,77.66
2023-05-14T08:44:50.818Z,76.95
2023-05-14T08:47:22.406Z,76.88
2023-05-14T08:49:59.318Z,76.11
2023-05-14T08:52:27.302Z,75.57
2023-05-14T08:54:56.258Z,74.24
2023-05-14T08:57:26.830Z,73.33
2023-05-14T08:59:54.766Z,73.63
2023-05-14T09:02:25.926Z,73.17
2023-05-14T09:04:56.886Z,73.29
2023-05-14T09:07:24.878Z,72.80
2023-05-14T09:09:53.299Z,70.99
2023-05-14T09:12:21.444Z,71.41
2023-05-14T09:14:51.630Z,72.32
2023-05-14T09:17:19.668Z,70.56
2023-05-14T09:19:49.284Z,71.11
2023-05-14T09:22:18.616Z,72.15
2023-05-14T09:24:47.301Z,72.70
2023-05-14T09:27:20.620Z,73.00
2023-05-14T09:29:50.278Z,72.99
2023-05-14T09:32:17.924Z,72.84
2023-05-14T09:34:45.767Z,73.21
2023-05-14T09:37:13.378Z,73.38
2023-05-14T09:39:41.228Z,73.13
2023-05-14T09:42:09.045Z,72.12
2023-05-14T09:44:38.186Z,70.71
2023-05-14T09:47:07.629Z,71.47
2023-05-14T09:49:35.257Z,71.71
2023-05-14T09:52:03.804Z,70.78
2023-05-14T09:54:33.678Z,70.72
2023-05-14T09:57:01.439Z,70.69
2023-05-14T09:59:29.170Z,70.93
2023-05-14T10:01:58.357Z,71.14
2023-05-14T10:04:27.714Z,70.43
2023-05-14T10:06:56.544Z,69.97
2023-05-14T10:09:27.032Z,69.74
2023-05-14T10:11:57.944Z,69.28
2023-05-14T10:14:30.334Z,69.35
2023-05-14T10:17:01.856Z,68.85
2023-05-14T10:19:34.193Z,68.35
2023-05-14T10:22:05.566Z,68.40
2023-05-14T10:24:34.171Z,68.45
2023-05-14T10:27:02.134Z,68.87
2023-05-14T10:29:35.124Z,67.95
2023-05-14T10:32:06.675Z,68.77
2023-05-14T10:34:38.527Z,69.19
2023-05-14T10:37:09.975Z,69.19
2023-05-14T10:39:45.787Z,69.44
2023-05-14T10:42:14.536Z,68.87
2023-05-14T10:44:51.291Z,69.15
2023-05-14T10:47:19.378Z,69.67
2023-05-14T10:49:53.001Z,69.12
2023-05-14T10:52:22.045Z,68.73
2023-05-14T10:54:51.661Z,69.43
2023-05-14T10:57:20.169Z,69.88
2023-05-14T10:59:49.273Z,69.99
2023-05-14T11:02:22.460Z,69.40
2023-05-14T11:05:03.912Z,69.22
2023-05-14T11:07:33.564Z,69.12
2023-05-14T11:10:05.875Z,69.61
2023-05-14T11:12:34.448Z,70.11
2023-05-14T11:15:03.852Z,69.58
2023-05-14T11:17:32.688Z,69.84
2023-05-14T11:20:01.680Z,69.81
2023-05-14T11:22:29.530Z,70.26
2023-05-14T11:24:57.457Z,70.24
2023-05-14T11:27:26.287Z,70.13
2023-05-14T11:29:55.961Z,69.65
2023-05-14T11:32:23.740Z,69.93
2023-05-14T11:34:51.755Z,70.46
2023-05-14T11:37:21.049Z,70.04
2023-05-14T11:39:50.245Z,69.58
2023-05-14T11:42:19.547Z,69.46
2023-05-14T11:44:49.095Z,68.26
2023-05-14T11:47:18.197Z,68.93
2023-05-14T11:49:46.267Z,69.09
2023-05-14T11:52:15.161Z,69.36
2023-05-14T11:54:45.368Z,69.72
2023-05-14T11:57:14.331Z,69.40
2023-05-14T11:59:42.435Z,69.47
2023-05-14T12:02:11.899Z,69.65
2023-05-14T12:04:39.848Z,69.91
2023-05-14T12:07:11.673Z,69.89
2023-05-14T12:09:44.231Z,68.56
2023-05-14T12:12:14.260Z,69.05
2023-05-14T12:14:43.878Z,69.70
2023-05-14T12:17:16.861Z,68.15
2023-05-14T12:19:46.386Z,65.70
2023-05-14T12:22:16.750Z,66.22
2023-05-14T12:24:44.980Z,65.59
2023-05-14T12:27:14.076Z,65.71
2023-05-14T12:29:41.673Z,63.26
2023-05-14T12:32:11.051Z,62.36
2023-05-14T12:34:40.224Z,63.57
2023-05-14T12:37:08.208Z,61.84
2023-05-14T12:39:35.899Z,62.49
2023-05-14T12:42:03.769Z,62.12
2023-05-14T12:44:32.678Z,63.06
2023-05-14T12:47:00.568Z,63.37
2023-05-14T12:49:28.306Z,63.25
2023-05-14T12:52:07.697Z,63.95
2023-05-14T12:54:43.872Z,63.73
2023-05-14T12:57:11.499Z,62.61
2023-05-14T12:59:41.092Z,63.18
2023-05-14T13:02:09.133Z,63.36
2023-05-14T13:04:37.413Z,62.59
2023-05-14T13:07:05.182Z,60.54
2023-05-14T13:09:32.807Z,60.91
2023-05-14T13:12:00.442Z,61.53
2023-05-14T13:14:28.174Z,61.82
2023-05-14T13:16:57.179Z,61.89
2023-05-14T13:19:25.398Z,60.14
2023-05-14T13:21:53.016Z,60.57
2023-05-14T13:24:20.888Z,59.44
2023-05-14T13:26:48.490Z,59.99
2023-05-14T13:29:16.495Z,60.09
2023-05-14T13:31:44.085Z,58.94
2023-05-14T13:34:14.467Z,59.06
2023-05-14T13:36:43.879Z,58.88
2023-05-14T13:39:13.561Z,58.80
2023-05-14T13:41:42.222Z,58.47
2023-05-14T13:44:09.852Z,58.95
2023-05-14T13:46:37.556Z,58.92
2023-05-14T13:49:05.201Z,58.05
2023-05-14T13:51:34.459Z,57.97
2023-05-14T13:54:02.148Z,58.00
2023-05-14T13:56:30.667Z,58.36
2023-05-14T13:58:58.465Z,58.66
2023-05-14T14:01:26.127Z,59.45
2023-05-14T14:03:53.730Z,58.04
2023-05-14T14:06:21.439Z,57.29
2023-05-14T14:08:50.508Z,57.05
2023-05-14T14:11:18.242Z,57.63
2023-05-14T14:13:46.755Z,56.87
2023-05-14T14:16:14.708Z,56.88
2023-05-14T14:18:43.373Z,56.27
2023-05-14T14:21:12.038Z,56.36
2023-05-14T14:23:39.661Z,56.98
2023-05-14T14:26:08.629Z,56.68
2023-05-14T14:28:36.386Z,53.51
2023-05-14T14:31:04.106Z,54.95
2023-05-14T14:33:31.829Z,53.07
2023-05-14T14:35:59.431Z,54.37
2023-05-14T14:38:27.154Z,53.98
2023-05-14T14:40:54.751Z,52.89
2023-05-14T14:43:23.858Z,54.01
2023-05-14T14:45:51.515Z,55.25
2023-05-14T14:48:31.530Z,49.97
2023-05-14T14:50:59.708Z,51.34
2023-05-14T14:53:28.048Z,52.77
2023-05-14T14:55:55.659Z,52.68
2023-05-14T14:58:25.324Z,53.47
2023-05-14T15:00:54.582Z,53.58
2023-05-14T15:03:22.841Z,51.52
2023-05-14T15:05:51.186Z,52.80
2023-05-14T15:08:18.790Z,51.17
2023-05-14T15:10:46.560Z,51.98
2023-05-14T15:13:14.209Z,50.42
2023-05-14T15:15:43.468Z,53.47
2023-05-14T15:18:11.532Z,52.58
2023-05-14T15:20:39.607Z,52.73
2023-05-14T15:23:07.272Z,53.25
2023-05-14T15:25:35.081Z,53.13
2023-05-14T15:28:02.699Z,52.72
2023-05-14T15:30:31.299Z,49.27
2023-05-14T15:33:00.546Z,48.87
2023-05-14T15:35:28.253Z,49.15
2023-05-14T15:37:57.131Z,50.18
2023-05-14T15:40:25.097Z,50.80
2023-05-14T15:42:52.839Z,52.15
2023-05-14T15:45:20.637Z,53.20
2023-05-14T15:47:48.308Z,53.56
2023-05-14T15:50:17.568Z,54.13
2023-05-14T15:52:45.194Z,54.64
2023-05-14T15:55:12.822Z,55.38
2023-05-14T15:57:40.487Z,56.10
2023-05-14T16:00:10.942Z,56.42
2023-05-14T16:02:39.149Z,57.36
2023-05-14T16:05:08.426Z,58.11
2023-05-14T16:07:38.090Z,58.46
2023-05-14T16:10:06.773Z,56.37
2023-05-14T16:12:35.111Z,54.03
2023-05-14T16:15:03.060Z,52.98
2023-05-14T16:17:32.820Z,52.48
2023-05-14T16:20:00.769Z,49.53
2023-05-14T16:22:29.195Z,47.73
2023-05-14T16:24:58.208Z,45.60
2023-05-14T16:27:26.027Z,47.61
2023-05-14T16:29:53.991Z,47.51
2023-05-14T16:32:21.696Z,48.21
2023-05-14T16:34:50.454Z,49.76
2023-05-14T16:37:19.825Z,50.42
2023-05-14T16:39:47.475Z,52.01
2023-05-14T16:42:16.692Z,53.85
2023-05-14T16:44:44.473Z,54.21
2023-05-14T16:47:12.156Z,54.71
2023-05-14T16:49:39.920Z,52.96
2023-05-14T16:52:08.356Z,52.74
2023-05-14T16:54:36.387Z,52.65
2023-05-14T16:57:04.148Z,52.76
2023-05-14T16:59:33.539Z,54.26
2023-05-14T17:02:01.261Z,54.62
2023-05-14T17:04:29.024Z,55.69
2023-05-14T17:06:57.403Z,55.91
2023-05-14T17:09:25.157Z,56.58
2023-05-14T17:11:52.907Z,57.01
2023-05-14T17:14:20.711Z,56.61
2023-05-14T17:16:49.999Z,57.72
2023-05-14T17:19:17.735Z,61.31
2023-05-14T17:21:45.348Z,64.16
2023-05-14T17:24:13.122Z,66.18
2023-05-14T17:26:40.917Z,68.14
2023-05-14T17:29:08.639Z,70.85
2023-05-14T17:31:36.394Z,74.12
2023-05-14T17:34:05.654Z,75.92
2023-05-14T17:36:33.309Z,76.71
2023-05-14T17:39:00.925Z,78.29
2023-05-14T17:41:28.667Z,78.79
2023-05-14T17:43:56.259Z,79.12
2023-05-14T17:46:24.549Z,79.99
2023-05-14T17:48:52.262Z,80.57
2023-05-14T17:51:21.212Z,80.69
2023-05-14T17:53:48.789Z,80.65
2023-05-14T17:56:18.472Z,80.26
2023-05-14T17:58:46.174Z,80.59
2023-05-14T18:01:14.022Z,81.22
2023-05-14T18:03:42.300Z,81.21
2023-05-14T18:06:10.606Z,81.22
2023-05-14T18:08:39.554Z,80.76
2023-05-14T18:11:07.511Z,80.85
2023-05-14T18:13:35.417Z,81.47
2023-05-14T18:16:03.795Z,80.69
2023-05-14T18:18:31.847Z,80.53
2023-05-14T18:20:59.491Z,80.74
2023-05-14T18:23:27.267Z,81.20
2023-05-14T18:25:56.426Z,81.26
2023-05-14T18:28:24.148Z,80.76
2023-05-14T18:30:51.830Z,80.55
2023-05-14T18:33:19.660Z,80.05
2023-05-14T18:35:47.276Z,79.86
2023-05-14T18:38:17.911Z,80.60
2023-05-14T18:40:45.678Z,81.15
2023-05-14T18:43:15.051Z,81.57
2023-05-14T18:45:42.726Z,81.36
2023-05-14T18:48:10.930Z,80.91
2023-05-14T18:50:39.456Z,80.96
2023-05-14T18:53:07.651Z,80.96
2023-05-14T18:55:35.962Z,81.12
2023-05-14T18:58:03.885Z,80.91
2023-05-14T19:00:32.819Z,81.22
2023-05-14T19:03:00.546Z,81.25
2023-05-14T19:05:28.361Z,81.33
2023-05-14T19:07:56.107Z,80.72
2023-05-14T19:10:23.732Z,80.50
2023-05-14T19:12:51.360Z,80.93
2023-05-14T19:15:19.222Z,81.19
2023-05-14T19:17:49.091Z,81.10
2023-05-14T19:20:16.893Z,81.36
2023-05-14T19:22:44.528Z,81.74
2023-05-14T19:25:12.253Z,81.94
2023-05-14T19:27:40.127Z,81.77
2023-05-14T19:30:09.056Z,82.00
2023-05-14T19:32:37.920Z,82.01
2023-05-14T19:35:07.544Z,81.86
2023-05-14T19:37:35.173Z,82.24
2023-05-14T19:40:03.587Z,82.46
2023-05-14T19:42:31.760Z,82.57
2023-05-14T19:44:59.504Z,82.89
2023-05-14T19:47:28.466Z,82.98
2023-05-14T19:52:46.099Z,83.12
2023-05-14T19:55:13.887Z,83.15
2023-05-14T19:57:41.514Z,83.40
2023-05-14T20:00:10.456Z,83.39
2023-05-14T20:02:41.957Z,83.53
2023-05-14T20:05:10.581Z,83.65
2023-05-14T20:07:40.144Z,83.74
2023-05-14T20:10:10.653Z,83.64
2023-05-14T20:12:38.364Z,84.06
2023-05-14T20:15:06.849Z,83.97
2023-05-14T20:17:34.566Z,83.85
2023-05-14T20:20:02.386Z,83.64
2023-05-14T20:22:30.000Z,83.70
2023-05-14T20:24:57.617Z,83.78
2023-05-14T20:27:27.199Z,83.86
2023-05-14T20:29:54.977Z,84.20
2023-05-14T20:32:24.944Z,84.17
2023-05-14T20:34:52.853Z,84.15
2023-05-14T20:37:20.771Z,84.60
2023-05-14T20:39:48.624Z,84.56
2023-05-14T20:42:16.272Z,84.29
2023-05-14T20:44:45.548Z,84.56
2023-05-14T20:47:16.312Z,84.09
2023-05-14T20:49:43.984Z,84.14
2023-05-14T20:52:11.594Z,84.10
2023-05-14T20:54:39.395Z,84.42
2023-05-14T20:57:07.094Z,84.67
2023-05-14T20:59:34.830Z,84.61
2023-05-14T21:02:03.998Z,84.90
2023-05-14T21:04:31.847Z,85.19
2023-05-14T21:06:59.546Z,85.27
2023-05-14T21:09:27.612Z,85.07
2023-05-14T21:11:55.699Z,84.70
2023-05-14T21:14:23.757Z,84.75
2023-05-14T21:16:51.429Z,84.84
2023-05-14T21:19:20.653Z,85.40
2023-05-14T21:21:48.434Z,85.30
2023-05-14T21:24:16.713Z,85.58
2023-05-14T21:26:44.477Z,85.56
2023-05-14T21:29:12.101Z,85.72
2023-05-14T21:31:39.851Z,85.75
2023-05-14T21:34:07.519Z,85.95
2023-05-14T21:36:36.686Z,86.32
2023-05-14T21:39:05.467Z,86.77
2023-05-14T21:41:33.619Z,87.36
2023-05-14T21:44:01.213Z,87.24
2023-05-14T21:46:28.931Z,86.93
2023-05-14T21:48:56.957Z,86.88
2023-05-14T21:51:25.127Z,86.87
2023-05-14T21:53:54.345Z,86.91
2023-05-14T21:56:22.459Z,86.92
2023-05-14T21:58:50.259Z,87.22
2023-05-14T22:01:18.147Z,87.05
2023-05-14T22:03:45.838Z,86.79
2023-05-14T22:06:13.766Z,86.92
2023-05-14T22:08:41.363Z,87.12
2023-05-14T22:11:10.714Z,87.05
2023-05-14T22:13:40.983Z,87.11
2023-05-14T22:16:13.376Z,87.31
2023-05-14T22:18:41.640Z,87.18
2023-05-14T22:21:09.304Z,87.30
2023-05-14T22:23:37.530Z,87.15
2023-05-14T22:26:05.954Z,87.31
2023-05-14T22:28:35.061Z,87.42
2023-05-14T22:31:04.076Z,87.19
2023-05-14T22:33:33.311Z,87.47
2023-05-14T22:36:00.955Z,87.94
2023-05-14T22:38:28.722Z,87.90
2023-05-14T22:40:56.412Z,87.62
2023-05-14T22:43:24.240Z,87.72
2023-05-14T22:45:53.235Z,87.74
2023-05-14T22:48:21.106Z,87.70
2023-05-14T22:50:48.712Z,87.61
2023-05-14T22:53:16.313Z,87.65
2023-05-14T22:55:44.035Z,88.07
2023-05-14T22:58:12.183Z,88.64
2023-05-14T23:00:39.795Z,88.16
2023-05-14T23:03:08.967Z,88.44
2023-05-14T23:05:36.708Z,89.26
2023-05-14T23:08:04.689Z,90.21
2023-05-14T23:10:32.479Z,90.66
2023-05-14T23:13:00.086Z,90.91
2023-05-14T23:15:27.900Z,90.57
2023-05-14T23:17:55.659Z,90.48
2023-05-14T23:20:24.655Z,89.79
2023-05-14T23:22:52.396Z,89.55
2023-05-14T23:25:20.220Z,89.38
2023-05-14T23:27:47.959Z,89.82
2023-05-14T23:30:15.782Z,89.83
2023-05-14T23:32:43.428Z,89.26
2023-05-14T23:35:11.431Z,89.15
2023-05-14T23:37:46.847Z,89.23
2023-05-14T23:40:15.567Z,89.42
2023-05-14T23:42:43.996Z,89.38
2023-05-14T23:45:12.970Z,88.97
2023-05-14T23:47:41.524Z,89.16
2023-05-14T23:50:09.456Z,89.04
2023-05-14T23:52:37.092Z,89.08
2023-05-14T23:55:07.054Z,89.04
2023-05-14T23:57:34.982Z,89.08
